sensor_id;sensor_type;location;lat;lon;timestamp;P1;durP1;ratioP1;P2;durP2;ratioP2
81176;SDS011;74095;48.270;14.200;2024-01-27T00:01:59;3.28;;;1.00;;
81176;SDS011;74095;48.270;14.200;2024-01-27T00:04:25;2.40;;;1.30;;
81176;SDS011;74095;48.270;14.200;2024-01-27T00:06:51;3.88;;;1.20;;
81176;SDS011;74095;48.270;14.200;2024-01-27T00:09:17;3.55;;;1.02;;
81176;SDS011;74095;48.270;14.200;2024-01-27T00:11:43;3.90;;;1.25;;
81176;SDS011;74095;48.270;14.200;2024-01-27T00:14:09;1.98;;;0.98;;
81176;SDS011;74095;48.270;14.200;2024-01-27T00:16:35;3.80;;;1.42;;
81176;SDS011;74095;48.270;14.200;2024-01-27T00:19:00;3.72;;;1.30;;
81176;SDS011;74095;48.270;14.200;2024-01-27T00:21:26;2.67;;;1.30;;
81176;SDS011;74095;48.270;14.200;2024-01-27T00:23:53;4.97;;;1.25;;
81176;SDS011;74095;48.270;14.200;2024-01-27T00:26:19;4.70;;;1.70;;
81176;SDS011;74095;48.270;14.200;2024-01-27T00:28:45;1.92;;;1.20;;
81176;SDS011;74095;48.270;14.200;2024-01-27T00:31:11;3.63;;;1.17;;
81176;SDS011;74095;48.270;14.200;2024-01-27T00:33:37;1.85;;;1.27;;
81176;SDS011;74095;48.270;14.200;2024-01-27T00:36:03;3.72;;;1.40;;
81176;SDS011;74095;48.270;14.200;2024-01-27T00:38:29;2.85;;;1.45;;
81176;SDS011;74095;48.270;14.200;2024-01-27T00:40:55;4.57;;;1.73;;
81176;SDS011;74095;48.270;14.200;2024-01-27T00:43:21;4.00;;;1.58;;
81176;SDS011;74095;48.270;14.200;2024-01-27T00:45:47;4.07;;;1.40;;
81176;SDS011;74095;48.270;14.200;2024-01-27T00:48:13;3.38;;;1.50;;
81176;SDS011;74095;48.270;14.200;2024-01-27T00:50:39;7.05;;;1.58;;
81176;SDS011;74095;48.270;14.200;2024-01-27T00:53:04;5.75;;;1.98;;
81176;SDS011;74095;48.270;14.200;2024-01-27T00:55:30;4.50;;;1.95;;
81176;SDS011;74095;48.270;14.200;2024-01-27T00:57:56;4.50;;;1.88;;
81176;SDS011;74095;48.270;14.200;2024-01-27T01:00:22;6.88;;;1.83;;
81176;SDS011;74095;48.270;14.200;2024-01-27T01:02:48;3.97;;;1.50;;
81176;SDS011;74095;48.270;14.200;2024-01-27T01:05:14;4.63;;;1.75;;
81176;SDS011;74095;48.270;14.200;2024-01-27T01:07:40;4.13;;;1.98;;
81176;SDS011;74095;48.270;14.200;2024-01-27T01:10:06;3.90;;;2.00;;
81176;SDS011;74095;48.270;14.200;2024-01-27T01:12:32;4.10;;;2.00;;
81176;SDS011;74095;48.270;14.200;2024-01-27T01:14:58;6.45;;;2.38;;
81176;SDS011;74095;48.270;14.200;2024-01-27T01:17:24;4.32;;;2.00;;
81176;SDS011;74095;48.270;14.200;2024-01-27T01:19:50;4.43;;;1.90;;
81176;SDS011;74095;48.270;14.200;2024-01-27T01:22:16;5.07;;;1.85;;
81176;SDS011;74095;48.270;14.200;2024-01-27T01:24:42;4.70;;;1.90;;
81176;SDS011;74095;48.270;14.200;2024-01-27T01:27:07;3.08;;;1.80;;
81176;SDS011;74095;48.270;14.200;2024-01-27T01:29:33;5.78;;;1.85;;
81176;SDS011;74095;48.270;14.200;2024-01-27T01:32:00;2.05;;;1.50;;
81176;SDS011;74095;48.270;14.200;2024-01-27T01:34:28;4.68;;;1.88;;
81176;SDS011;74095;48.270;14.200;2024-01-27T01:36:54;3.97;;;1.52;;
81176;SDS011;74095;48.270;14.200;2024-01-27T01:39:20;5.07;;;1.70;;
81176;SDS011;74095;48.270;14.200;2024-01-27T01:41:46;3.75;;;1.73;;
81176;SDS011;74095;48.270;14.200;2024-01-27T01:44:12;6.88;;;1.80;;
81176;SDS011;74095;48.270;14.200;2024-01-27T01:46:37;4.28;;;1.52;;
81176;SDS011;74095;48.270;14.200;2024-01-27T01:49:04;4.35;;;2.05;;
81176;SDS011;74095;48.270;14.200;2024-01-27T01:51:30;5.65;;;1.92;;
81176;SDS011;74095;48.270;14.200;2024-01-27T01:53:59;2.95;;;1.60;;
81176;SDS011;74095;48.270;14.200;2024-01-27T01:56:26;4.97;;;1.70;;
81176;SDS011;74095;48.270;14.200;2024-01-27T01:58:53;4.72;;;1.70;;
81176;SDS011;74095;48.270;14.200;2024-01-27T02:01:20;1.85;;;1.30;;
81176;SDS011;74095;48.270;14.200;2024-01-27T02:03:56;3.58;;;1.48;;
81176;SDS011;74095;48.270;14.200;2024-01-27T02:06:23;2.83;;;1.65;;
81176;SDS011;74095;48.270;14.200;2024-01-27T02:08:49;2.88;;;1.52;;
81176;SDS011;74095;48.270;14.200;2024-01-27T02:11:16;2.85;;;1.75;;
81176;SDS011;74095;48.270;14.200;2024-01-27T02:13:42;4.68;;;2.13;;
81176;SDS011;74095;48.270;14.200;2024-01-27T02:16:09;3.85;;;1.65;;
81176;SDS011;74095;48.270;14.200;2024-01-27T02:18:35;6.00;;;1.92;;
81176;SDS011;74095;48.270;14.200;2024-01-27T02:21:01;4.28;;;1.65;;
81176;SDS011;74095;48.270;14.200;2024-01-27T02:23:26;3.15;;;1.52;;
81176;SDS011;74095;48.270;14.200;2024-01-27T02:25:52;3.72;;;1.42;;
81176;SDS011;74095;48.270;14.200;2024-01-27T02:28:18;5.63;;;1.75;;
81176;SDS011;74095;48.270;14.200;2024-01-27T02:30:44;3.75;;;2.33;;
81176;SDS011;74095;48.270;14.200;2024-01-27T02:33:10;5.57;;;1.67;;
81176;SDS011;74095;48.270;14.200;2024-01-27T02:35:36;4.40;;;1.70;;
81176;SDS011;74095;48.270;14.200;2024-01-27T02:38:02;5.35;;;2.33;;
81176;SDS011;74095;48.270;14.200;2024-01-27T02:40:28;2.80;;;1.35;;
81176;SDS011;74095;48.270;14.200;2024-01-27T02:42:53;5.18;;;1.70;;
81176;SDS011;74095;48.270;14.200;2024-01-27T02:45:19;4.57;;;1.48;;
81176;SDS011;74095;48.270;14.200;2024-01-27T02:47:45;7.53;;;1.70;;
81176;SDS011;74095;48.270;14.200;2024-01-27T02:50:11;3.22;;;1.70;;
81176;SDS011;74095;48.270;14.200;2024-01-27T02:52:37;5.35;;;1.90;;
81176;SDS011;74095;48.270;14.200;2024-01-27T02:55:03;3.95;;;1.50;;
81176;SDS011;74095;48.270;14.200;2024-01-27T02:57:29;5.07;;;1.90;;
81176;SDS011;74095;48.270;14.200;2024-01-27T02:59:55;4.78;;;1.80;;
81176;SDS011;74095;48.270;14.200;2024-01-27T03:02:22;5.50;;;1.60;;
81176;SDS011;74095;48.270;14.200;2024-01-27T03:04:50;2.85;;;1.40;;
81176;SDS011;74095;48.270;14.200;2024-01-27T03:07:17;6.53;;;1.85;;
81176;SDS011;74095;48.270;14.200;2024-01-27T03:09:46;5.32;;;1.83;;
81176;SDS011;74095;48.270;14.200;2024-01-27T03:12:12;3.92;;;1.73;;
81176;SDS011;74095;48.270;14.200;2024-01-27T03:14:39;4.60;;;2.22;;
81176;SDS011;74095;48.270;14.200;2024-01-27T03:17:07;3.58;;;1.80;;
81176;SDS011;74095;48.270;14.200;2024-01-27T03:19:36;3.80;;;2.15;;
81176;SDS011;74095;48.270;14.200;2024-01-27T03:22:07;2.88;;;1.60;;
81176;SDS011;74095;48.270;14.200;2024-01-27T03:24:37;5.00;;;2.53;;
81176;SDS011;74095;48.270;14.200;2024-01-27T03:27:06;7.03;;;2.13;;
81176;SDS011;74095;48.270;14.200;2024-01-27T03:29:38;5.68;;;1.98;;
81176;SDS011;74095;48.270;14.200;2024-01-27T03:32:08;5.57;;;2.00;;
81176;SDS011;74095;48.270;14.200;2024-01-27T03:34:43;7.60;;;2.47;;
81176;SDS011;74095;48.270;14.200;2024-01-27T03:37:14;6.18;;;1.90;;
81176;SDS011;74095;48.270;14.200;2024-01-27T03:39:44;4.43;;;1.80;;
81176;SDS011;74095;48.270;14.200;2024-01-27T03:42:14;3.50;;;2.10;;
81176;SDS011;74095;48.270;14.200;2024-01-27T03:44:46;5.82;;;1.98;;
81176;SDS011;74095;48.270;14.200;2024-01-27T03:47:17;10.90;;;2.75;;
81176;SDS011;74095;48.270;14.200;2024-01-27T03:49:48;4.15;;;1.85;;
81176;SDS011;74095;48.270;14.200;2024-01-27T03:52:16;4.07;;;1.67;;
81176;SDS011;74095;48.270;14.200;2024-01-27T03:54:44;2.88;;;1.85;;
81176;SDS011;74095;48.270;14.200;2024-01-27T03:57:13;5.80;;;1.80;;
81176;SDS011;74095;48.270;14.200;2024-01-27T03:59:43;5.97;;;1.55;;
81176;SDS011;74095;48.270;14.200;2024-01-27T04:02:12;3.65;;;1.90;;
81176;SDS011;74095;48.270;14.200;2024-01-27T04:04:42;3.90;;;1.40;;
81176;SDS011;74095;48.270;14.200;2024-01-27T04:07:14;4.72;;;1.65;;
81176;SDS011;74095;48.270;14.200;2024-01-27T04:09:43;4.88;;;1.90;;
81176;SDS011;74095;48.270;14.200;2024-01-27T04:12:12;5.55;;;2.28;;
81176;SDS011;74095;48.270;14.200;2024-01-27T04:14:45;4.97;;;2.10;;
81176;SDS011;74095;48.270;14.200;2024-01-27T04:17:15;3.33;;;1.50;;
81176;SDS011;74095;48.270;14.200;2024-01-27T04:19:43;5.50;;;1.60;;
81176;SDS011;74095;48.270;14.200;2024-01-27T04:22:14;5.25;;;1.98;;
81176;SDS011;74095;48.270;14.200;2024-01-27T04:24:45;5.13;;;1.70;;
81176;SDS011;74095;48.270;14.200;2024-01-27T04:27:15;3.65;;;1.85;;
81176;SDS011;74095;48.270;14.200;2024-01-27T04:29:44;5.18;;;1.73;;
81176;SDS011;74095;48.270;14.200;2024-01-27T04:32:15;4.80;;;1.70;;
81176;SDS011;74095;48.270;14.200;2024-01-27T04:34:49;5.45;;;1.65;;
81176;SDS011;74095;48.270;14.200;2024-01-27T04:37:22;4.00;;;1.70;;
81176;SDS011;74095;48.270;14.200;2024-01-27T04:39:50;4.35;;;1.67;;
81176;SDS011;74095;48.270;14.200;2024-01-27T04:42:21;5.53;;;2.17;;
81176;SDS011;74095;48.270;14.200;2024-01-27T04:44:53;5.82;;;1.98;;
81176;SDS011;74095;48.270;14.200;2024-01-27T04:47:22;4.68;;;1.73;;
81176;SDS011;74095;48.270;14.200;2024-01-27T04:49:51;5.38;;;2.17;;
81176;SDS011;74095;48.270;14.200;2024-01-27T04:52:24;4.75;;;2.00;;
81176;SDS011;74095;48.270;14.200;2024-01-27T04:54:55;5.00;;;2.05;;
81176;SDS011;74095;48.270;14.200;2024-01-27T04:57:27;5.00;;;1.98;;
81176;SDS011;74095;48.270;14.200;2024-01-27T04:59:58;5.93;;;2.30;;
81176;SDS011;74095;48.270;14.200;2024-01-27T05:02:35;5.68;;;2.45;;
81176;SDS011;74095;48.270;14.200;2024-01-27T05:05:07;9.60;;;2.83;;
81176;SDS011;74095;48.270;14.200;2024-01-27T05:07:39;5.57;;;2.05;;
81176;SDS011;74095;48.270;14.200;2024-01-27T05:10:11;7.28;;;2.30;;
81176;SDS011;74095;48.270;14.200;2024-01-27T05:12:39;6.68;;;2.42;;
81176;SDS011;74095;48.270;14.200;2024-01-27T05:15:09;4.72;;;2.00;;
81176;SDS011;74095;48.270;14.200;2024-01-27T05:17:38;5.70;;;2.88;;
81176;SDS011;74095;48.270;14.200;2024-01-27T05:20:09;9.68;;;3.38;;
81176;SDS011;74095;48.270;14.200;2024-01-27T05:22:40;3.47;;;2.17;;
81176;SDS011;74095;48.270;14.200;2024-01-27T05:25:08;7.55;;;2.30;;
81176;SDS011;74095;48.270;14.200;2024-01-27T05:27:40;8.75;;;2.50;;
81176;SDS011;74095;48.270;14.200;2024-01-27T05:30:10;4.88;;;2.22;;
81176;SDS011;74095;48.270;14.200;2024-01-27T05:32:44;5.95;;;2.20;;
81176;SDS011;74095;48.270;14.200;2024-01-27T05:35:14;6.43;;;1.95;;
81176;SDS011;74095;48.270;14.200;2024-01-27T05:37:44;5.88;;;2.40;;
81176;SDS011;74095;48.270;14.200;2024-01-27T05:40:13;6.40;;;2.67;;
81176;SDS011;74095;48.270;14.200;2024-01-27T05:42:42;7.57;;;2.53;;
81176;SDS011;74095;48.270;14.200;2024-01-27T05:45:12;5.75;;;2.50;;
81176;SDS011;74095;48.270;14.200;2024-01-27T05:47:41;6.45;;;2.60;;
81176;SDS011;74095;48.270;14.200;2024-01-27T05:50:11;6.22;;;2.53;;
81176;SDS011;74095;48.270;14.200;2024-01-27T05:52:41;5.32;;;2.72;;
81176;SDS011;74095;48.270;14.200;2024-01-27T05:55:12;7.82;;;3.03;;
81176;SDS011;74095;48.270;14.200;2024-01-27T05:57:40;7.45;;;2.60;;
81176;SDS011;74095;48.270;14.200;2024-01-27T06:00:08;6.82;;;2.72;;
81176;SDS011;74095;48.270;14.200;2024-01-27T06:02:41;5.22;;;2.30;;
81176;SDS011;74095;48.270;14.200;2024-01-27T06:05:13;7.95;;;2.78;;
81176;SDS011;74095;48.270;14.200;2024-01-27T06:07:41;7.10;;;2.53;;
81176;SDS011;74095;48.270;14.200;2024-01-27T06:10:22;5.00;;;2.78;;
81176;SDS011;74095;48.270;14.200;2024-01-27T06:13:16;7.30;;;2.97;;
81176;SDS011;74095;48.270;14.200;2024-01-27T06:16:12;5.82;;;2.88;;
81176;SDS011;74095;48.270;14.200;2024-01-27T06:19:08;6.68;;;3.05;;
81176;SDS011;74095;48.270;14.200;2024-01-27T06:22:00;6.25;;;3.00;;
81176;SDS011;74095;48.270;14.200;2024-01-27T06:25:08;7.63;;;2.80;;
81176;SDS011;74095;48.270;14.200;2024-01-27T06:28:05;6.57;;;2.78;;
81176;SDS011;74095;48.270;14.200;2024-01-27T06:30:56;9.57;;;3.28;;
81176;SDS011;74095;48.270;14.200;2024-01-27T06:33:53;6.70;;;3.42;;
81176;SDS011;74095;48.270;14.200;2024-01-27T06:36:47;10.82;;;3.15;;
81176;SDS011;74095;48.270;14.200;2024-01-27T06:39:41;7.57;;;3.17;;
81176;SDS011;74095;48.270;14.200;2024-01-27T06:42:37;8.38;;;2.80;;
81176;SDS011;74095;48.270;14.200;2024-01-27T06:45:37;7.35;;;2.85;;
81176;SDS011;74095;48.270;14.200;2024-01-27T06:48:35;6.97;;;2.72;;
81176;SDS011;74095;48.270;14.200;2024-01-27T06:51:29;6.53;;;2.80;;
81176;SDS011;74095;48.270;14.200;2024-01-27T06:54:20;8.13;;;2.97;;
81176;SDS011;74095;48.270;14.200;2024-01-27T06:57:25;9.07;;;3.00;;
81176;SDS011;74095;48.270;14.200;2024-01-27T07:00:21;9.05;;;3.28;;
81176;SDS011;74095;48.270;14.200;2024-01-27T07:03:12;8.20;;;3.33;;
81176;SDS011;74095;48.270;14.200;2024-01-27T07:06:17;9.85;;;3.97;;
81176;SDS011;74095;48.270;14.200;2024-01-27T07:09:13;6.70;;;2.90;;
81176;SDS011;74095;48.270;14.200;2024-01-27T07:12:02;7.75;;;3.40;;
81176;SDS011;74095;48.270;14.200;2024-01-27T07:14:55;6.93;;;3.17;;
81176;SDS011;74095;48.270;14.200;2024-01-27T07:18:03;6.07;;;2.83;;
81176;SDS011;74095;48.270;14.200;2024-01-27T07:20:58;5.40;;;3.00;;
81176;SDS011;74095;48.270;14.200;2024-01-27T07:24:13;7.35;;;3.17;;
81176;SDS011;74095;48.270;14.200;2024-01-27T07:27:12;11.90;;;4.40;;
81176;SDS011;74095;48.270;14.200;2024-01-27T07:30:23;10.20;;;3.72;;
81176;SDS011;74095;48.270;14.200;2024-01-27T07:36:14;8.60;;;5.50;;
81176;SDS011;74095;48.270;14.200;2024-01-27T07:39:09;8.98;;;4.80;;
81176;SDS011;74095;48.270;14.200;2024-01-27T07:42:14;11.25;;;3.60;;
81176;SDS011;74095;48.270;14.200;2024-01-27T07:45:05;8.00;;;3.80;;
81176;SDS011;74095;48.270;14.200;2024-01-27T07:48:03;7.93;;;3.13;;
81176;SDS011;74095;48.270;14.200;2024-01-27T07:50:56;11.30;;;3.08;;
81176;SDS011;74095;48.270;14.200;2024-01-27T07:53:47;6.18;;;3.28;;
81176;SDS011;74095;48.270;14.200;2024-01-27T07:56:49;8.50;;;3.40;;
81176;SDS011;74095;48.270;14.200;2024-01-27T07:59:44;8.00;;;3.20;;
81176;SDS011;74095;48.270;14.200;2024-01-27T08:02:37;8.70;;;3.30;;
81176;SDS011;74095;48.270;14.200;2024-01-27T08:05:31;10.63;;;3.38;;
81176;SDS011;74095;48.270;14.200;2024-01-27T08:08:38;8.25;;;3.22;;
81176;SDS011;74095;48.270;14.200;2024-01-27T08:11:46;8.82;;;2.90;;
81176;SDS011;74095;48.270;14.200;2024-01-27T08:14:40;9.77;;;3.72;;
81176;SDS011;74095;48.270;14.200;2024-01-27T08:17:33;10.35;;;4.00;;
81176;SDS011;74095;48.270;14.200;2024-01-27T08:22:48;7.50;;;3.60;;
81176;SDS011;74095;48.270;14.200;2024-01-27T08:25:17;5.57;;;3.15;;
81176;SDS011;74095;48.270;14.200;2024-01-27T08:27:43;18.88;;;6.93;;
81176;SDS011;74095;48.270;14.200;2024-01-27T08:30:09;21.85;;;8.02;;
81176;SDS011;74095;48.270;14.200;2024-01-27T08:32:36;14.60;;;6.43;;
81176;SDS011;74095;48.270;14.200;2024-01-27T08:35:02;10.70;;;5.32;;
81176;SDS011;74095;48.270;14.200;2024-01-27T08:37:28;11.80;;;6.38;;
81176;SDS011;74095;48.270;14.200;2024-01-27T08:39:54;9.38;;;4.40;;
81176;SDS011;74095;48.270;14.200;2024-01-27T08:42:20;8.07;;;3.88;;
81176;SDS011;74095;48.270;14.200;2024-01-27T08:44:45;8.10;;;3.90;;
81176;SDS011;74095;48.270;14.200;2024-01-27T08:47:11;8.50;;;3.78;;
81176;SDS011;74095;48.270;14.200;2024-01-27T08:49:37;8.20;;;3.80;;
81176;SDS011;74095;48.270;14.200;2024-01-27T08:52:03;10.23;;;4.82;;
81176;SDS011;74095;48.270;14.200;2024-01-27T08:54:29;5.97;;;3.03;;
81176;SDS011;74095;48.270;14.200;2024-01-27T08:56:55;7.15;;;3.97;;
81176;SDS011;74095;48.270;14.200;2024-01-27T08:59:21;7.80;;;3.33;;
81176;SDS011;74095;48.270;14.200;2024-01-27T09:01:47;8.93;;;3.63;;
81176;SDS011;74095;48.270;14.200;2024-01-27T09:04:13;8.70;;;3.15;;
81176;SDS011;74095;48.270;14.200;2024-01-27T09:06:39;7.60;;;3.35;;
81176;SDS011;74095;48.270;14.200;2024-01-27T09:09:05;6.40;;;3.17;;
81176;SDS011;74095;48.270;14.200;2024-01-27T09:11:31;8.35;;;3.35;;
81176;SDS011;74095;48.270;14.200;2024-01-27T09:13:57;6.15;;;3.28;;
81176;SDS011;74095;48.270;14.200;2024-01-27T09:16:23;6.70;;;3.22;;
81176;SDS011;74095;48.270;14.200;2024-01-27T09:18:49;11.48;;;4.22;;
81176;SDS011;74095;48.270;14.200;2024-01-27T09:21:16;11.43;;;3.58;;
81176;SDS011;74095;48.270;14.200;2024-01-27T09:23:46;5.63;;;3.15;;
81176;SDS011;74095;48.270;14.200;2024-01-27T09:26:13;8.48;;;3.42;;
81176;SDS011;74095;48.270;14.200;2024-01-27T09:28:40;9.43;;;3.65;;
81176;SDS011;74095;48.270;14.200;2024-01-27T09:31:10;7.40;;;3.20;;
81176;SDS011;74095;48.270;14.200;2024-01-27T09:33:36;8.88;;;3.55;;
81176;SDS011;74095;48.270;14.200;2024-01-27T09:36:02;7.40;;;3.95;;
81176;SDS011;74095;48.270;14.200;2024-01-27T09:38:29;8.40;;;3.03;;
81176;SDS011;74095;48.270;14.200;2024-01-27T09:40:55;8.18;;;3.65;;
81176;SDS011;74095;48.270;14.200;2024-01-27T09:43:21;6.90;;;3.75;;
81176;SDS011;74095;48.270;14.200;2024-01-27T09:45:50;8.82;;;3.10;;
81176;SDS011;74095;48.270;14.200;2024-01-27T09:48:16;11.27;;;4.28;;
81176;SDS011;74095;48.270;14.200;2024-01-27T09:50:44;8.35;;;3.05;;
81176;SDS011;74095;48.270;14.200;2024-01-27T09:53:11;7.78;;;3.30;;
81176;SDS011;74095;48.270;14.200;2024-01-27T09:55:37;10.35;;;3.00;;
81176;SDS011;74095;48.270;14.200;2024-01-27T09:58:03;8.15;;;3.47;;
81176;SDS011;74095;48.270;14.200;2024-01-27T10:00:29;5.65;;;2.83;;
81176;SDS011;74095;48.270;14.200;2024-01-27T10:02:56;7.57;;;3.33;;
81176;SDS011;74095;48.270;14.200;2024-01-27T10:05:22;6.70;;;3.00;;
81176;SDS011;74095;48.270;14.200;2024-01-27T10:07:49;8.77;;;3.28;;
81176;SDS011;74095;48.270;14.200;2024-01-27T10:10:15;7.43;;;3.35;;
81176;SDS011;74095;48.270;14.200;2024-01-27T10:12:41;7.50;;;3.20;;
81176;SDS011;74095;48.270;14.200;2024-01-27T10:15:20;8.05;;;3.45;;
81176;SDS011;74095;48.270;14.200;2024-01-27T10:17:47;9.50;;;4.00;;
81176;SDS011;74095;48.270;14.200;2024-01-27T10:20:13;11.77;;;3.75;;
81176;SDS011;74095;48.270;14.200;2024-01-27T10:22:41;8.98;;;3.47;;
81176;SDS011;74095;48.270;14.200;2024-01-27T10:25:08;8.60;;;3.78;;
81176;SDS011;74095;48.270;14.200;2024-01-27T10:27:37;5.93;;;3.45;;
81176;SDS011;74095;48.270;14.200;2024-01-27T10:30:04;7.43;;;3.30;;
81176;SDS011;74095;48.270;14.200;2024-01-27T10:32:30;6.03;;;3.33;;
81176;SDS011;74095;48.270;14.200;2024-01-27T10:35:05;9.10;;;4.10;;
81176;SDS011;74095;48.270;14.200;2024-01-27T10:37:35;7.80;;;3.22;;
81176;SDS011;74095;48.270;14.200;2024-01-27T10:40:05;5.90;;;3.05;;
81176;SDS011;74095;48.270;14.200;2024-01-27T10:42:35;10.60;;;3.47;;
81176;SDS011;74095;48.270;14.200;2024-01-27T10:45:03;8.88;;;3.55;;
81176;SDS011;74095;48.270;14.200;2024-01-27T10:47:30;7.03;;;4.05;;
81176;SDS011;74095;48.270;14.200;2024-01-27T10:49:58;8.32;;;4.20;;
81176;SDS011;74095;48.270;14.200;2024-01-27T10:52:25;6.03;;;3.40;;
81176;SDS011;74095;48.270;14.200;2024-01-27T10:54:58;5.57;;;3.10;;
81176;SDS011;74095;48.270;14.200;2024-01-27T10:57:28;8.13;;;3.67;;
81176;SDS011;74095;48.270;14.200;2024-01-27T10:59:56;7.45;;;3.00;;
81176;SDS011;74095;48.270;14.200;2024-01-27T11:02:23;8.60;;;3.13;;
81176;SDS011;74095;48.270;14.200;2024-01-27T11:04:50;6.60;;;3.50;;
81176;SDS011;74095;48.270;14.200;2024-01-27T11:07:20;9.88;;;3.47;;
81176;SDS011;74095;48.270;14.200;2024-01-27T11:09:48;6.75;;;2.88;;
81176;SDS011;74095;48.270;14.200;2024-01-27T11:12:15;6.47;;;2.92;;
81176;SDS011;74095;48.270;14.200;2024-01-27T11:14:42;7.95;;;3.10;;
81176;SDS011;74095;48.270;14.200;2024-01-27T11:17:08;8.75;;;3.13;;
81176;SDS011;74095;48.270;14.200;2024-01-27T11:19:34;6.90;;;2.88;;
81176;SDS011;74095;48.270;14.200;2024-01-27T11:22:01;5.60;;;2.80;;
81176;SDS011;74095;48.270;14.200;2024-01-27T11:24:30;6.70;;;2.70;;
81176;SDS011;74095;48.270;14.200;2024-01-27T11:27:02;7.43;;;2.83;;
81176;SDS011;74095;48.270;14.200;2024-01-27T11:29:32;7.13;;;3.05;;
81176;SDS011;74095;48.270;14.200;2024-01-27T11:32:00;6.63;;;2.83;;
81176;SDS011;74095;48.270;14.200;2024-01-27T11:34:27;10.30;;;3.33;;
81176;SDS011;74095;48.270;14.200;2024-01-27T11:36:53;6.25;;;3.13;;
81176;SDS011;74095;48.270;14.200;2024-01-27T11:39:23;6.75;;;3.17;;
81176;SDS011;74095;48.270;14.200;2024-01-27T11:41:53;6.32;;;2.60;;
81176;SDS011;74095;48.270;14.200;2024-01-27T11:44:33;9.25;;;2.85;;
81176;SDS011;74095;48.270;14.200;2024-01-27T11:47:00;10.27;;;3.40;;
81176;SDS011;74095;48.270;14.200;2024-01-27T11:49:26;7.90;;;3.25;;
81176;SDS011;74095;48.270;14.200;2024-01-27T11:51:52;8.07;;;3.92;;
81176;SDS011;74095;48.270;14.200;2024-01-27T11:54:18;10.73;;;3.20;;
81176;SDS011;74095;48.270;14.200;2024-01-27T11:56:44;7.78;;;4.22;;
81176;SDS011;74095;48.270;14.200;2024-01-27T11:59:10;7.82;;;3.22;;
81176;SDS011;74095;48.270;14.200;2024-01-27T12:01:36;13.02;;;4.25;;
81176;SDS011;74095;48.270;14.200;2024-01-27T12:04:06;8.95;;;3.30;;
81176;SDS011;74095;48.270;14.200;2024-01-27T12:06:33;7.15;;;2.97;;
81176;SDS011;74095;48.270;14.200;2024-01-27T12:08:59;8.30;;;4.07;;
81176;SDS011;74095;48.270;14.200;2024-01-27T12:11:25;6.47;;;3.17;;
81176;SDS011;74095;48.270;14.200;2024-01-27T12:13:51;8.55;;;3.35;;
81176;SDS011;74095;48.270;14.200;2024-01-27T12:16:18;7.30;;;3.08;;
81176;SDS011;74095;48.270;14.200;2024-01-27T12:18:47;6.05;;;3.33;;
81176;SDS011;74095;48.270;14.200;2024-01-27T12:21:20;6.70;;;2.75;;
81176;SDS011;74095;48.270;14.200;2024-01-27T12:23:53;8.50;;;3.50;;
81176;SDS011;74095;48.270;14.200;2024-01-27T12:26:20;7.43;;;3.38;;
81176;SDS011;74095;48.270;14.200;2024-01-27T12:28:48;8.50;;;3.83;;
81176;SDS011;74095;48.270;14.200;2024-01-27T12:31:17;5.55;;;2.60;;
81176;SDS011;74095;48.270;14.200;2024-01-27T12:33:53;9.38;;;3.28;;
81176;SDS011;74095;48.270;14.200;2024-01-27T12:36:21;6.05;;;2.42;;
81176;SDS011;74095;48.270;14.200;2024-01-27T12:39:00;6.03;;;2.67;;
81176;SDS011;74095;48.270;14.200;2024-01-27T12:41:29;8.70;;;3.42;;
81176;SDS011;74095;48.270;14.200;2024-01-27T12:43:55;6.07;;;2.63;;
81176;SDS011;74095;48.270;14.200;2024-01-27T12:46:21;5.90;;;2.78;;
81176;SDS011;74095;48.270;14.200;2024-01-27T12:48:48;9.10;;;2.70;;
81176;SDS011;74095;48.270;14.200;2024-01-27T12:51:13;8.70;;;2.72;;
81176;SDS011;74095;48.270;14.200;2024-01-27T12:53:40;6.05;;;2.35;;
81176;SDS011;74095;48.270;14.200;2024-01-27T12:56:12;5.70;;;2.20;;
81176;SDS011;74095;48.270;14.200;2024-01-27T12:58:40;6.45;;;2.58;;
81176;SDS011;74095;48.270;14.200;2024-01-27T13:01:07;7.63;;;2.83;;
81176;SDS011;74095;48.270;14.200;2024-01-27T13:03:34;4.95;;;2.45;;
81176;SDS011;74095;48.270;14.200;2024-01-27T13:06:01;6.90;;;2.15;;
81176;SDS011;74095;48.270;14.200;2024-01-27T13:08:27;5.50;;;2.05;;
81176;SDS011;74095;48.270;14.200;2024-01-27T13:10:53;8.77;;;2.10;;
81176;SDS011;74095;48.270;14.200;2024-01-27T13:13:19;7.43;;;2.30;;
81176;SDS011;74095;48.270;14.200;2024-01-27T13:15:45;6.45;;;2.35;;
81176;SDS011;74095;48.270;14.200;2024-01-27T13:18:11;5.72;;;2.88;;
81176;SDS011;74095;48.270;14.200;2024-01-27T13:20:37;10.90;;;3.03;;
81176;SDS011;74095;48.270;14.200;2024-01-27T13:23:03;4.85;;;1.90;;
81176;SDS011;74095;48.270;14.200;2024-01-27T13:25:29;9.60;;;2.25;;
81176;SDS011;74095;48.270;14.200;2024-01-27T13:27:55;7.93;;;2.65;;
81176;SDS011;74095;48.270;14.200;2024-01-27T13:30:21;8.55;;;2.25;;
81176;SDS011;74095;48.270;14.200;2024-01-27T13:32:47;7.55;;;3.08;;
81176;SDS011;74095;48.270;14.200;2024-01-27T13:35:13;7.28;;;2.42;;
81176;SDS011;74095;48.270;14.200;2024-01-27T13:37:39;8.50;;;2.55;;
81176;SDS011;74095;48.270;14.200;2024-01-27T13:40:05;8.02;;;2.30;;
81176;SDS011;74095;48.270;14.200;2024-01-27T13:42:33;7.60;;;2.70;;
81176;SDS011;74095;48.270;14.200;2024-01-27T13:44:59;9.32;;;2.53;;
81176;SDS011;74095;48.270;14.200;2024-01-27T13:47:25;5.85;;;2.08;;
81176;SDS011;74095;48.270;14.200;2024-01-27T13:49:51;8.00;;;2.08;;
81176;SDS011;74095;48.270;14.200;2024-01-27T13:52:17;5.75;;;2.05;;
81176;SDS011;74095;48.270;14.200;2024-01-27T13:54:45;8.25;;;2.38;;
81176;SDS011;74095;48.270;14.200;2024-01-27T13:57:11;8.80;;;2.47;;
81176;SDS011;74095;48.270;14.200;2024-01-27T13:59:37;8.85;;;2.60;;
81176;SDS011;74095;48.270;14.200;2024-01-27T14:02:03;7.07;;;2.50;;
81176;SDS011;74095;48.270;14.200;2024-01-27T14:04:29;8.32;;;2.72;;
81176;SDS011;74095;48.270;14.200;2024-01-27T14:06:55;9.80;;;2.47;;
81176;SDS011;74095;48.270;14.200;2024-01-27T14:09:28;6.93;;;2.42;;
81176;SDS011;74095;48.270;14.200;2024-01-27T14:11:54;11.63;;;2.25;;
81176;SDS011;74095;48.270;14.200;2024-01-27T14:14:20;6.53;;;2.38;;
81176;SDS011;74095;48.270;14.200;2024-01-27T14:16:46;9.77;;;2.20;;
81176;SDS011;74095;48.270;14.200;2024-01-27T14:19:12;6.47;;;2.72;;
81176;SDS011;74095;48.270;14.200;2024-01-27T14:21:38;9.48;;;2.20;;
81176;SDS011;74095;48.270;14.200;2024-01-27T14:24:07;6.97;;;2.00;;
81176;SDS011;74095;48.270;14.200;2024-01-27T14:26:34;8.85;;;2.50;;
81176;SDS011;74095;48.270;14.200;2024-01-27T14:29:00;5.88;;;2.17;;
81176;SDS011;74095;48.270;14.200;2024-01-27T14:31:26;5.25;;;2.10;;
81176;SDS011;74095;48.270;14.200;2024-01-27T14:33:53;6.43;;;2.20;;
81176;SDS011;74095;48.270;14.200;2024-01-27T14:36:19;7.22;;;2.03;;
81176;SDS011;74095;48.270;14.200;2024-01-27T14:38:46;6.85;;;2.10;;
81176;SDS011;74095;48.270;14.200;2024-01-27T14:41:12;8.18;;;2.40;;
81176;SDS011;74095;48.270;14.200;2024-01-27T14:43:38;8.27;;;2.30;;
81176;SDS011;74095;48.270;14.200;2024-01-27T14:46:04;7.65;;;2.20;;
81176;SDS011;74095;48.270;14.200;2024-01-27T14:48:31;8.27;;;2.30;;
81176;SDS011;74095;48.270;14.200;2024-01-27T14:50:57;9.57;;;2.25;;
81176;SDS011;74095;48.270;14.200;2024-01-27T14:53:27;8.82;;;3.05;;
81176;SDS011;74095;48.270;14.200;2024-01-27T14:55:54;9.40;;;2.92;;
81176;SDS011;74095;48.270;14.200;2024-01-27T14:58:21;9.50;;;3.17;;
81176;SDS011;74095;48.270;14.200;2024-01-27T15:00:47;10.32;;;3.15;;
81176;SDS011;74095;48.270;14.200;2024-01-27T15:03:21;7.95;;;2.70;;